sensor_id;sensor_type;location;lat;lon;timestamp;P1;durP1;ratioP1;P2;durP2;ratioP2
42670;SDS011;28283;55.426;37.756;2022-12-29T00:00:34;5.43;;;1.30;;
42670;SDS011;28283;55.426;37.756;2022-12-29T00:05:35;3.03;;;1.02;;
42670;SDS011;28283;55.426;37.756;2022-12-29T00:10:35;3.30;;;1.05;;
42670;SDS011;28283;55.426;37.756;2022-12-29T00:15:39;2.45;;;0.40;;
42670;SDS011;28283;55.426;37.756;2022-12-29T00:20:40;2.95;;;0.70;;
42670;SDS011;28283;55.426;37.756;2022-12-29T00:26:02;1.40;;;0.90;;
42670;SDS011;28283;55.426;37.756;2022-12-29T00:31:22;2.20;;;0.60;;
42670;SDS011;28283;55.426;37.756;2022-12-29T00:36:42;7.88;;;1.02;;
42670;SDS011;28283;55.426;37.756;2022-12-29T00:41:43;2.05;;;0.75;;
42670;SDS011;28283;55.426;37.756;2022-12-29T00:47:03;2.00;;;0.52;;
42670;SDS011;28283;55.426;37.756;2022-12-29T00:52:06;1.75;;;0.57;;
42670;SDS011;28283;55.426;37.756;2022-12-29T00:57:11;0.68;;;0.30;;
42670;SDS011;28283;55.426;37.756;2022-12-29T01:07:13;3.85;;;0.60;;
42670;SDS011;28283;55.426;37.756;2022-12-29T01:12:14;4.50;;;0.55;;
42670;SDS011;28283;55.426;37.756;2022-12-29T01:17:14;0.88;;;0.70;;
42670;SDS011;28283;55.426;37.756;2022-12-29T01:22:15;0.75;;;0.38;;
42670;SDS011;28283;55.426;37.756;2022-12-29T01:27:16;2.10;;;1.27;;
42670;SDS011;28283;55.426;37.756;2022-12-29T01:32:16;2.88;;;0.75;;
42670;SDS011;28283;55.426;37.756;2022-12-29T01:37:17;2.55;;;0.55;;
42670;SDS011;28283;55.426;37.756;2022-12-29T01:42:19;0.55;;;0.40;;
42670;SDS011;28283;55.426;37.756;2022-12-29T01:52:26;3.65;;;0.77;;
42670;SDS011;28283;55.426;37.756;2022-12-29T01:57:31;4.13;;;1.02;;
42670;SDS011;28283;55.426;37.756;2022-12-29T02:02:37;3.95;;;0.80;;
42670;SDS011;28283;55.426;37.756;2022-12-29T02:07:37;2.78;;;1.02;;
42670;SDS011;28283;55.426;37.756;2022-12-29T02:12:39;3.25;;;1.08;;
42670;SDS011;28283;55.426;37.756;2022-12-29T02:38:50;7.03;;;1.10;;
42670;SDS011;28283;55.426;37.756;2022-12-29T02:49:30;4.20;;;1.20;;
42670;SDS011;28283;55.426;37.756;2022-12-29T02:54:41;1.42;;;0.55;;
42670;SDS011;28283;55.426;37.756;2022-12-29T02:59:42;1.85;;;0.55;;
42670;SDS011;28283;55.426;37.756;2022-12-29T03:15:46;0.40;;;0.40;;
42670;SDS011;28283;55.426;37.756;2022-12-29T03:21:10;3.40;;;0.93;;
42670;SDS011;28283;55.426;37.756;2022-12-29T03:26:16;7.75;;;1.45;;
42670;SDS011;28283;55.426;37.756;2022-12-29T03:31:23;4.47;;;1.17;;
42670;SDS011;28283;55.426;37.756;2022-12-29T03:36:30;4.53;;;2.45;;
42670;SDS011;28283;55.426;37.756;2022-12-29T03:41:40;6.30;;;1.58;;
42670;SDS011;28283;55.426;37.756;2022-12-29T03:46:44;9.98;;;0.70;;
42670;SDS011;28283;55.426;37.756;2022-12-29T03:51:45;2.20;;;0.55;;
42670;SDS011;28283;55.426;37.756;2022-12-29T03:56:48;4.63;;;0.80;;
42670;SDS011;28283;55.426;37.756;2022-12-29T04:06:50;2.47;;;0.90;;
42670;SDS011;28283;55.426;37.756;2022-12-29T04:11:52;2.15;;;0.60;;
42670;SDS011;28283;55.426;37.756;2022-12-29T04:21:53;4.75;;;1.80;;
42670;SDS011;28283;55.426;37.756;2022-12-29T04:31:54;3.35;;;1.17;;
42670;SDS011;28283;55.426;37.756;2022-12-29T04:41:55;7.68;;;1.52;;
42670;SDS011;28283;55.426;37.756;2022-12-29T04:51:57;2.80;;;1.27;;
42670;SDS011;28283;55.426;37.756;2022-12-29T05:01:58;3.17;;;1.00;;
42670;SDS011;28283;55.426;37.756;2022-12-29T05:11:59;4.50;;;1.05;;
42670;SDS011;28283;55.426;37.756;2022-12-29T05:22:01;2.92;;;0.80;;
42670;SDS011;28283;55.426;37.756;2022-12-29T05:32:02;3.88;;;1.30;;
42670;SDS011;28283;55.426;37.756;2022-12-29T05:42:03;1.25;;;0.70;;
42670;SDS011;28283;55.426;37.756;2022-12-29T05:52:05;4.43;;;1.92;;
42670;SDS011;28283;55.426;37.756;2022-12-29T06:02:06;4.38;;;1.95;;
42670;SDS011;28283;55.426;37.756;2022-12-29T06:12:07;1.70;;;0.60;;
42670;SDS011;28283;55.426;37.756;2022-12-29T06:17:12;0.68;;;0.50;;
42670;SDS011;28283;55.426;37.756;2022-12-29T06:22:27;3.20;;;1.20;;
42670;SDS011;28283;55.426;37.756;2022-12-29T06:27:37;5.50;;;1.88;;
42670;SDS011;28283;55.426;37.756;2022-12-29T06:32:38;3.30;;;1.77;;
42670;SDS011;28283;55.426;37.756;2022-12-29T06:42:39;3.55;;;1.88;;
42670;SDS011;28283;55.426;37.756;2022-12-29T06:52:41;10.02;;;2.90;;
42670;SDS011;28283;55.426;37.756;2022-12-29T06:57:42;9.27;;;3.92;;
42670;SDS011;28283;55.426;37.756;2022-12-29T07:07:43;6.32;;;2.30;;
42670;SDS011;28283;55.426;37.756;2022-12-29T07:12:43;11.43;;;3.83;;
42670;SDS011;28283;55.426;37.756;2022-12-29T07:17:44;6.90;;;2.58;;
42670;SDS011;28283;55.426;37.756;2022-12-29T07:22:45;4.72;;;1.67;;
42670;SDS011;28283;55.426;37.756;2022-12-29T07:27:47;4.60;;;2.72;;
42670;SDS011;28283;55.426;37.756;2022-12-29T07:32:48;7.07;;;2.67;;
42670;SDS011;28283;55.426;37.756;2022-12-29T07:37:49;4.57;;;1.20;;
42670;SDS011;28283;55.426;37.756;2022-12-29T07:42:50;4.75;;;1.77;;
42670;SDS011;28283;55.426;37.756;2022-12-29T07:47:51;5.93;;;2.47;;
42670;SDS011;28283;55.426;37.756;2022-12-29T07:52:52;7.68;;;2.22;;
42670;SDS011;28283;55.426;37.756;2022-12-29T07:57:53;3.00;;;1.20;;
42670;SDS011;28283;55.426;37.756;2022-12-29T08:03:00;3.55;;;1.40;;
42670;SDS011;28283;55.426;37.756;2022-12-29T08:08:04;2.50;;;1.05;;
42670;SDS011;28283;55.426;37.756;2022-12-29T08:13:05;1.80;;;0.57;;
42670;SDS011;28283;55.426;37.756;2022-12-29T08:18:06;4.25;;;1.98;;
42670;SDS011;28283;55.426;37.756;2022-12-29T08:23:06;3.10;;;1.00;;
42670;SDS011;28283;55.426;37.756;2022-12-29T08:28:07;1.13;;;0.65;;
42670;SDS011;28283;55.426;37.756;2022-12-29T08:33:08;3.10;;;0.55;;
42670;SDS011;28283;55.426;37.756;2022-12-29T08:38:08;5.55;;;1.17;;
42670;SDS011;28283;55.426;37.756;2022-12-29T08:43:11;1.73;;;0.70;;
42670;SDS011;28283;55.426;37.756;2022-12-29T08:48:12;6.57;;;1.40;;
42670;SDS011;28283;55.426;37.756;2022-12-29T08:53:13;3.30;;;1.38;;
42670;SDS011;28283;55.426;37.756;2022-12-29T08:58:13;2.35;;;1.15;;
42670;SDS011;28283;55.426;37.756;2022-12-29T09:03:14;2.33;;;1.00;;
42670;SDS011;28283;55.426;37.756;2022-12-29T09:08:15;2.63;;;1.00;;
42670;SDS011;28283;55.426;37.756;2022-12-29T09:13:17;4.97;;;0.95;;
42670;SDS011;28283;55.426;37.756;2022-12-29T09:18:21;3.92;;;0.68;;
42670;SDS011;28283;55.426;37.756;2022-12-29T09:23:21;1.95;;;0.90;;
42670;SDS011;28283;55.426;37.756;2022-12-29T09:28:30;6.05;;;2.08;;
42670;SDS011;28283;55.426;37.756;2022-12-29T09:33:31;6.75;;;1.83;;
42670;SDS011;28283;55.426;37.756;2022-12-29T09:38:34;3.63;;;1.63;;
42670;SDS011;28283;55.426;37.756;2022-12-29T09:43:43;2.28;;;1.33;;
42670;SDS011;28283;55.426;37.756;2022-12-29T09:49:13;3.63;;;1.23;;
42670;SDS011;28283;55.426;37.756;2022-12-29T09:54:41;6.13;;;1.98;;
42670;SDS011;28283;55.426;37.756;2022-12-29T09:59:59;4.88;;;3.05;;
42670;SDS011;28283;55.426;37.756;2022-12-29T10:05:19;8.93;;;4.28;;
42670;SDS011;28283;55.426;37.756;2022-12-29T10:10:50;6.93;;;3.55;;
42670;SDS011;28283;55.426;37.756;2022-12-29T10:27:51;8.85;;;3.80;;
42670;SDS011;28283;55.426;37.756;2022-12-29T10:32:58;8.52;;;4.45;;
42670;SDS011;28283;55.426;37.756;2022-12-29T10:44:09;8.05;;;4.28;;
42670;SDS011;28283;55.426;37.756;2022-12-29T10:49:16;13.02;;;5.55;;
42670;SDS011;28283;55.426;37.756;2022-12-29T10:54:29;7.65;;;4.55;;
42670;SDS011;28283;55.426;37.756;2022-12-29T10:59:38;11.35;;;5.22;;
42670;SDS011;28283;55.426;37.756;2022-12-29T11:09:45;9.25;;;6.18;;
42670;SDS011;28283;55.426;37.756;2022-12-29T11:21:33;9.68;;;5.18;;
42670;SDS011;28283;55.426;37.756;2022-12-29T11:26:43;12.57;;;6.15;;
42670;SDS011;28283;55.426;37.756;2022-12-29T11:31:52;8.02;;;5.65;;
42670;SDS011;28283;55.426;37.756;2022-12-29T11:43:04;16.37;;;7.13;;
42670;SDS011;28283;55.426;37.756;2022-12-29T11:48:54;12.17;;;6.90;;
42670;SDS011;28283;55.426;37.756;2022-12-29T11:54:02;13.90;;;7.07;;
42670;SDS011;28283;55.426;37.756;2022-12-29T12:10:48;16.55;;;7.85;;
42670;SDS011;28283;55.426;37.756;2022-12-29T12:16:15;21.20;;;10.45;;
42670;SDS011;28283;55.426;37.756;2022-12-29T12:33:05;11.82;;;7.95;;
42670;SDS011;28283;55.426;37.756;2022-12-29T12:54:42;16.55;;;7.68;;
42670;SDS011;28283;55.426;37.756;2022-12-29T13:06:14;19.98;;;9.60;;
42670;SDS011;28283;55.426;37.756;2022-12-29T13:45:43;22.75;;;12.20;;
42670;SDS011;28283;55.426;37.756;2022-12-29T13:56:41;22.92;;;11.18;;
42670;SDS011;28283;55.426;37.756;2022-12-29T14:07:17;28.90;;;11.30;;
42670;SDS011;28283;55.426;37.756;2022-12-29T14:12:24;20.17;;;9.73;;
42670;SDS011;28283;55.426;37.756;2022-12-29T14:17:32;26.73;;;11.40;;
42670;SDS011;28283;55.426;37.756;2022-12-29T14:22:36;22.42;;;10.88;;
42670;SDS011;28283;55.426;37.756;2022-12-29T14:28:16;21.23;;;10.65;;
42670;SDS011;28283;55.426;37.756;2022-12-29T14:33:34;20.70;;;10.13;;
42670;SDS011;28283;55.426;37.756;2022-12-29T14:38:53;14.77;;;8.98;;
42670;SDS011;28283;55.426;37.756;2022-12-29T14:44:18;15.15;;;9.27;;
42670;SDS011;28283;55.426;37.756;2022-12-29T14:49:21;19.08;;;10.45;;
42670;SDS011;28283;55.426;37.756;2022-12-29T14:59:35;15.68;;;9.55;;
42670;SDS011;28283;55.426;37.756;2022-12-29T15:04:39;16.92;;;9.00;;
42670;SDS011;28283;55.426;37.756;2022-12-29T15:15:25;15.93;;;9.63;;
42670;SDS011;28283;55.426;37.756;2022-12-29T15:20:32;17.63;;;10.55;;
42670;SDS011;28283;55.426;37.756;2022-12-29T15:25:50;21.63;;;9.07;;
42670;SDS011;28283;55.426;37.756;2022-12-29T15:31:03;20.35;;;10.75;;
42670;SDS011;28283;55.426;37.756;2022-12-29T15:36:19;18.08;;;9.68;;
42670;SDS011;28283;55.426;37.756;2022-12-29T15:41:47;22.63;;;10.43;;
42670;SDS011;28283;55.426;37.756;2022-12-29T15:47:18;23.42;;;9.70;;
42670;SDS011;28283;55.426;37.756;2022-12-29T15:52:30;24.42;;;9.50;;
42670;SDS011;28283;55.426;37.756;2022-12-29T15:57:36;22.10;;;11.88;;
42670;SDS011;28283;55.426;37.756;2022-12-29T16:02:42;21.98;;;11.80;;
42670;SDS011;28283;55.426;37.756;2022-12-29T16:07:53;17.20;;;9.90;;
42670;SDS011;28283;55.426;37.756;2022-12-29T16:13:02;23.60;;;11.07;;
42670;SDS011;28283;55.426;37.756;2022-12-29T16:24:26;17.73;;;10.43;;
42670;SDS011;28283;55.426;37.756;2022-12-29T16:29:33;22.08;;;11.27;;
42670;SDS011;28283;55.426;37.756;2022-12-29T16:40:29;26.23;;;12.18;;
42670;SDS011;28283;55.426;37.756;2022-12-29T16:50:36;23.00;;;11.52;;
42670;SDS011;28283;55.426;37.756;2022-12-29T16:55:46;19.73;;;10.63;;
42670;SDS011;28283;55.426;37.756;2022-12-29T17:00:58;13.48;;;9.43;;
42670;SDS011;28283;55.426;37.756;2022-12-29T17:06:21;20.08;;;10.93;;
42670;SDS011;28283;55.426;37.756;2022-12-29T17:11:51;22.50;;;10.73;;
42670;SDS011;28283;55.426;37.756;2022-12-29T17:16:57;18.67;;;10.65;;
42670;SDS011;28283;55.426;37.756;2022-12-29T17:22:00;16.58;;;11.18;;
42670;SDS011;28283;55.426;37.756;2022-12-29T17:27:17;19.52;;;11.35;;
42670;SDS011;28283;55.426;37.756;2022-12-29T17:32:21;19.42;;;11.38;;
42670;SDS011;28283;55.426;37.756;2022-12-29T17:42:32;19.25;;;11.32;;
42670;SDS011;28283;55.426;37.756;2022-12-29T17:48:02;20.38;;;11.80;;
42670;SDS011;28283;55.426;37.756;2022-12-29T17:53:29;17.38;;;10.93;;
42670;SDS011;28283;55.426;37.756;2022-12-29T17:58:40;17.38;;;9.13;;
42670;SDS011;28283;55.426;37.756;2022-12-29T18:03:44;17.95;;;10.60;;
42670;SDS011;28283;55.426;37.756;2022-12-29T18:08:53;12.52;;;8.60;;
42670;SDS011;28283;55.426;37.756;2022-12-29T18:13:55;15.70;;;10.00;;
42670;SDS011;28283;55.426;37.756;2022-12-29T18:18:57;17.40;;;9.52;;
42670;SDS011;28283;55.426;37.756;2022-12-29T18:23:58;18.38;;;12.15;;
42670;SDS011;28283;55.426;37.756;2022-12-29T18:28:59;18.20;;;11.57;;
42670;SDS011;28283;55.426;37.756;2022-12-29T18:34:05;19.60;;;11.48;;
42670;SDS011;28283;55.426;37.756;2022-12-29T18:39:14;20.50;;;12.25;;
42670;SDS011;28283;55.426;37.756;2022-12-29T18:44:37;22.80;;;12.02;;
42670;SDS011;28283;55.426;37.756;2022-12-29T18:49:38;22.17;;;13.73;;
42670;SDS011;28283;55.426;37.756;2022-12-29T18:54:46;21.02;;;12.52;;
42670;SDS011;28283;55.426;37.756;2022-12-29T18:59:46;23.30;;;12.32;;
42670;SDS011;28283;55.426;37.756;2022-12-29T19:04:47;21.75;;;12.35;;
42670;SDS011;28283;55.426;37.756;2022-12-29T19:09:48;19.48;;;11.93;;
42670;SDS011;28283;55.426;37.756;2022-12-29T19:14:49;15.32;;;11.20;;
42670;SDS011;28283;55.426;37.756;2022-12-29T19:19:50;17.55;;;10.75;;
42670;SDS011;28283;55.426;37.756;2022-12-29T19:24:51;19.90;;;12.23;;
42670;SDS011;28283;55.426;37.756;2022-12-29T19:29:56;18.55;;;11.75;;
42670;SDS011;28283;55.426;37.756;2022-12-29T19:35:02;17.58;;;11.70;;
42670;SDS011;28283;55.426;37.756;2022-12-29T19:40:07;25.17;;;12.23;;
42670;SDS011;28283;55.426;37.756;2022-12-29T19:45:13;17.38;;;11.13;;
42670;SDS011;28283;55.426;37.756;2022-12-29T19:50:32;20.92;;;11.32;;
42670;SDS011;28283;55.426;37.756;2022-12-29T19:55:35;20.10;;;11.05;;
42670;SDS011;28283;55.426;37.756;2022-12-29T20:00:38;17.20;;;10.88;;
42670;SDS011;28283;55.426;37.756;2022-12-29T20:05:40;24.75;;;12.45;;
42670;SDS011;28283;55.426;37.756;2022-12-29T20:15:42;17.67;;;11.15;;
42670;SDS011;28283;55.426;37.756;2022-12-29T20:20:43;21.70;;;12.77;;
42670;SDS011;28283;55.426;37.756;2022-12-29T20:25:44;16.10;;;11.30;;
42670;SDS011;28283;55.426;37.756;2022-12-29T20:36:03;18.98;;;11.05;;
42670;SDS011;28283;55.426;37.756;2022-12-29T20:41:10;19.23;;;13.38;;
42670;SDS011;28283;55.426;37.756;2022-12-29T20:46:14;21.67;;;13.48;;
42670;SDS011;28283;55.426;37.756;2022-12-29T20:51:15;20.17;;;12.18;;
42670;SDS011;28283;55.426;37.756;2022-12-29T21:06:21;18.10;;;12.27;;
42670;SDS011;28283;55.426;37.756;2022-12-29T21:11:22;20.85;;;12.98;;
42670;SDS011;28283;55.426;37.756;2022-12-29T21:16:23;18.30;;;12.88;;
42670;SDS011;28283;55.426;37.756;2022-12-29T21:21:24;19.13;;;13.20;;
42670;SDS011;28283;55.426;37.756;2022-12-29T21:26:26;22.58;;;13.73;;
42670;SDS011;28283;55.426;37.756;2022-12-29T21:36:29;22.60;;;14.75;;
42670;SDS011;28283;55.426;37.756;2022-12-29T21:41:31;25.17;;;13.90;;
42670;SDS011;28283;55.426;37.756;2022-12-29T21:51:33;26.37;;;15.43;;
42670;SDS011;28283;55.426;37.756;2022-12-29T21:56:50;26.42;;;14.95;;
42670;SDS011;28283;55.426;37.756;2022-12-29T22:01:51;21.67;;;14.55;;
42670;SDS011;28283;55.426;37.756;2022-12-29T22:07:10;21.88;;;14.60;;
42670;SDS011;28283;55.426;37.756;2022-12-29T22:12:31;22.38;;;14.93;;
42670;SDS011;28283;55.426;37.756;2022-12-29T22:17:51;27.67;;;15.82;;
42670;SDS011;28283;55.426;37.756;2022-12-29T22:22:53;27.73;;;15.85;;
42670;SDS011;28283;55.426;37.756;2022-12-29T22:27:54;26.48;;;15.75;;
42670;SDS011;28283;55.426;37.756;2022-12-29T22:32:55;28.05;;;15.93;;
42670;SDS011;28283;55.426;37.756;2022-12-29T22:37:57;25.30;;;15.80;;
42670;SDS011;28283;55.426;37.756;2022-12-29T22:42:58;27.20;;;16.88;;
42670;SDS011;28283;55.426;37.756;2022-12-29T22:47:59;30.15;;;17.08;;
42670;SDS011;28283;55.426;37.756;2022-12-29T22:52:59;33.88;;;18.50;;
42670;SDS011;28283;55.426;37.756;2022-12-29T22:58:01;28.88;;;16.90;;
42670;SDS011;28283;55.426;37.756;2022-12-29T23:03:02;30.45;;;18.52;;
42670;SDS011;28283;55.426;37.756;2022-12-29T23:08:03;34.15;;;18.85;;
42670;SDS011;28283;55.426;37.756;2022-12-29T23:13:04;30.08;;;19.20;;
42670;SDS011;28283;55.426;37.756;2022-12-29T23:18:05;31.63;;;17.48;;
42670;SDS011;28283;55.426;37.756;2022-12-29T23:23:06;32.70;;;18.83;;
42670;SDS011;28283;55.426;37.756;2022-12-29T23:28:07;31.58;;;18.58;;
42670;SDS011;28283;55.426;37.756;2022-12-29T23:38:08;34.95;;;18.20;;
42670;SDS011;28283;55.426;37.756;2022-12-29T23:43:09;29.83;;;18.47;;
42670;SDS011;28283;55.426;37.756;2022-12-29T23:48:09;32.95;;;18.27;;
42670;SDS011;28283;55.426;37.756;2022-12-29T23:53:10;32.80;;;18.88;;
